sensor_id;sensor_type;location;lat;lon;timestamp;temperature;humidity
80579;SHT31;69939;52.402;6.608;2023-07-20T00:02:25;15.20;95.09
80579;SHT31;69939;52.402;6.608;2023-07-20T00:04:54;15.19;94.83
80579;SHT31;69939;52.402;6.608;2023-07-20T00:07:23;15.16;95.50
80579;SHT31;69939;52.402;6.608;2023-07-20T00:09:52;15.13;95.11
80579;SHT31;69939;52.402;6.608;2023-07-20T00:12:25;15.17;96.58
80579;SHT31;69939;52.402;6.608;2023-07-20T00:14:54;15.02;95.47
80579;SHT31;69939;52.402;6.608;2023-07-20T00:17:23;14.99;95.89
80579;SHT31;69939;52.402;6.608;2023-07-20T00:19:53;14.95;95.25
80579;SHT31;69939;52.402;6.608;2023-07-20T00:22:22;14.89;96.34
80579;SHT31;69939;52.402;6.608;2023-07-20T00:24:51;14.88;96.46
80579;SHT31;69939;52.402;6.608;2023-07-20T00:27:20;14.83;96.56
80579;SHT31;69939;52.402;6.608;2023-07-20T00:29:52;14.81;96.29
80579;SHT31;69939;52.402;6.608;2023-07-20T00:32:21;14.78;96.61
80579;SHT31;69939;52.402;6.608;2023-07-20T00:34:51;14.78;96.79
80579;SHT31;69939;52.402;6.608;2023-07-20T00:37:20;14.73;96.04
80579;SHT31;69939;52.402;6.608;2023-07-20T00:39:50;14.75;97.37
80579;SHT31;69939;52.402;6.608;2023-07-20T00:42:20;14.75;97.45
80579;SHT31;69939;52.402;6.608;2023-07-20T00:44:53;14.75;97.33
80579;SHT31;69939;52.402;6.608;2023-07-20T00:47:22;14.72;97.20
80579;SHT31;69939;52.402;6.608;2023-07-20T00:49:52;14.69;97.07
80579;SHT31;69939;52.402;6.608;2023-07-20T00:52:23;14.69;97.28
80579;SHT31;69939;52.402;6.608;2023-07-20T00:54:54;14.69;96.87
80579;SHT31;69939;52.402;6.608;2023-07-20T00:57:24;14.67;97.15
80579;SHT31;69939;52.402;6.608;2023-07-20T00:59:57;14.64;97.19
80579;SHT31;69939;52.402;6.608;2023-07-20T01:02:27;14.64;97.11
80579;SHT31;69939;52.402;6.608;2023-07-20T01:04:56;14.57;97.21
80579;SHT31;69939;52.402;6.608;2023-07-20T01:07:29;14.55;97.39
80579;SHT31;69939;52.402;6.608;2023-07-20T01:10:10;14.51;97.96
80579;SHT31;69939;52.402;6.608;2023-07-20T01:12:47;14.52;98.57
80579;SHT31;69939;52.402;6.608;2023-07-20T01:15:23;14.44;98.61
80579;SHT31;69939;52.402;6.608;2023-07-20T01:17:52;14.42;98.52
80579;SHT31;69939;52.402;6.608;2023-07-20T01:20:21;14.37;98.70
80579;SHT31;69939;52.402;6.608;2023-07-20T01:23:16;14.42;98.92
80579;SHT31;69939;52.402;6.608;2023-07-20T01:26:15;14.41;98.96
80579;SHT31;69939;52.402;6.608;2023-07-20T01:29:31;14.44;98.92
80579;SHT31;69939;52.402;6.608;2023-07-20T01:32:17;14.44;98.69
80579;SHT31;69939;52.402;6.608;2023-07-20T01:34:50;14.44;98.74
80579;SHT31;69939;52.402;6.608;2023-07-20T01:37:22;14.46;98.73
80579;SHT31;69939;52.402;6.608;2023-07-20T01:39:55;14.49;98.81
80579;SHT31;69939;52.402;6.608;2023-07-20T01:42:26;14.49;98.82
80579;SHT31;69939;52.402;6.608;2023-07-20T01:44:55;14.48;98.91
80579;SHT31;69939;52.402;6.608;2023-07-20T01:47:27;14.51;98.95
80579;SHT31;69939;52.402;6.608;2023-07-20T01:49:58;14.52;98.97
80579;SHT31;69939;52.402;6.608;2023-07-20T01:52:27;14.55;98.89
80579;SHT31;69939;52.402;6.608;2023-07-20T01:54:59;14.57;98.97
80579;SHT31;69939;52.402;6.608;2023-07-20T01:57:29;14.57;98.79
80579;SHT31;69939;52.402;6.608;2023-07-20T01:59:59;14.58;98.82
80579;SHT31;69939;52.402;6.608;2023-07-20T02:02:32;14.60;98.86
80579;SHT31;69939;52.402;6.608;2023-07-20T02:05:02;14.57;98.65
80579;SHT31;69939;52.402;6.608;2023-07-20T02:07:32;14.57;98.97
80579;SHT31;69939;52.402;6.608;2023-07-20T02:10:01;14.58;98.90
80579;SHT31;69939;52.402;6.608;2023-07-20T02:12:31;14.60;99.01
80579;SHT31;69939;52.402;6.608;2023-07-20T02:15:00;14.58;98.90
80579;SHT31;69939;52.402;6.608;2023-07-20T02:17:32;14.55;99.17
80579;SHT31;69939;52.402;6.608;2023-07-20T02:20:07;14.51;99.20
80579;SHT31;69939;52.402;6.608;2023-07-20T02:22:37;14.44;99.18
80579;SHT31;69939;52.402;6.608;2023-07-20T02:25:08;14.42;99.15
80579;SHT31;69939;52.402;6.608;2023-07-20T02:27:38;14.38;99.33
80579;SHT31;69939;52.402;6.608;2023-07-20T02:30:08;14.35;99.20
80579;SHT31;69939;52.402;6.608;2023-07-20T02:32:40;14.30;99.16
80579;SHT31;69939;52.402;6.608;2023-07-20T02:35:11;14.24;99.19
80579;SHT31;69939;52.402;6.608;2023-07-20T02:37:44;14.17;99.50
80579;SHT31;69939;52.402;6.608;2023-07-20T02:40:16;14.13;99.40
80579;SHT31;69939;52.402;6.608;2023-07-20T02:42:45;14.10;99.51
80579;SHT31;69939;52.402;6.608;2023-07-20T02:45:16;14.06;99.69
80579;SHT31;69939;52.402;6.608;2023-07-20T02:47:50;13.99;99.80
80579;SHT31;69939;52.402;6.608;2023-07-20T02:50:20;13.96;99.98
80579;SHT31;69939;52.402;6.608;2023-07-20T02:52:50;13.95;99.99
80579;SHT31;69939;52.402;6.608;2023-07-20T02:55:20;13.90;99.99
80579;SHT31;69939;52.402;6.608;2023-07-20T02:57:53;13.87;99.99
80579;SHT31;69939;52.402;6.608;2023-07-20T03:00:23;13.85;99.99
80579;SHT31;69939;52.402;6.608;2023-07-20T03:02:56;13.83;99.99
80579;SHT31;69939;52.402;6.608;2023-07-20T03:05:26;13.82;99.99
80579;SHT31;69939;52.402;6.608;2023-07-20T03:07:57;13.80;99.99
80579;SHT31;69939;52.402;6.608;2023-07-20T03:10:27;13.80;99.99
80579;SHT31;69939;52.402;6.608;2023-07-20T03:12:57;13.82;99.99
80579;SHT31;69939;52.402;6.608;2023-07-20T03:15:26;13.86;99.99
80579;SHT31;69939;52.402;6.608;2023-07-20T03:17:59;13.85;99.99
80579;SHT31;69939;52.402;6.608;2023-07-20T03:20:29;13.85;99.99
80579;SHT31;69939;52.402;6.608;2023-07-20T03:22:58;13.85;99.99
80579;SHT31;69939;52.402;6.608;2023-07-20T03:25:27;13.85;99.99
80579;SHT31;69939;52.402;6.608;2023-07-20T03:27:57;13.80;99.99
80579;SHT31;69939;52.402;6.608;2023-07-20T03:30:26;13.83;99.99
80579;SHT31;69939;52.402;6.608;2023-07-20T03:32:55;13.85;99.99
80579;SHT31;69939;52.402;6.608;2023-07-20T03:35:28;13.85;99.99
80579;SHT31;69939;52.402;6.608;2023-07-20T03:37:57;13.85;99.99
80579;SHT31;69939;52.402;6.608;2023-07-20T03:40:26;13.82;99.99
80579;SHT31;69939;52.402;6.608;2023-07-20T03:42:56;13.77;99.99
80579;SHT31;69939;52.402;6.608;2023-07-20T03:45:25;13.79;99.99
80579;SHT31;69939;52.402;6.608;2023-07-20T03:47:54;13.77;99.99
80579;SHT31;69939;52.402;6.608;2023-07-20T03:50:24;13.76;99.99
80579;SHT31;69939;52.402;6.608;2023-07-20T03:52:56;13.75;99.99
80579;SHT31;69939;52.402;6.608;2023-07-20T03:55:25;13.76;99.99
80579;SHT31;69939;52.402;6.608;2023-07-20T03:57:55;13.73;99.92
80579;SHT31;69939;52.402;6.608;2023-07-20T04:00:25;13.69;99.99
80579;SHT31;69939;52.402;6.608;2023-07-20T04:02:54;13.68;99.99
80579;SHT31;69939;52.402;6.608;2023-07-20T04:05:23;13.68;99.99
80579;SHT31;69939;52.402;6.608;2023-07-20T04:07:55;13.65;99.99
80579;SHT31;69939;52.402;6.608;2023-07-20T04:10:25;13.63;99.99
80579;SHT31;69939;52.402;6.608;2023-07-20T04:12:54;13.63;99.94
80579;SHT31;69939;52.402;6.608;2023-07-20T04:15:23;13.61;99.99
80579;SHT31;69939;52.402;6.608;2023-07-20T04:17:52;13.63;99.99
80579;SHT31;69939;52.402;6.608;2023-07-20T04:20:22;13.65;99.79
80579;SHT31;69939;52.402;6.608;2023-07-20T04:22:54;13.68;99.76
80579;SHT31;69939;52.402;6.608;2023-07-20T04:25:23;13.69;99.59
80579;SHT31;69939;52.402;6.608;2023-07-20T04:27:52;13.68;99.48
80579;SHT31;69939;52.402;6.608;2023-07-20T04:30:21;13.70;99.61
80579;SHT31;69939;52.402;6.608;2023-07-20T04:32:51;13.73;99.62
80579;SHT31;69939;52.402;6.608;2023-07-20T04:35:47;13.80;99.49
80579;SHT31;69939;52.402;6.608;2023-07-20T04:38:20;13.90;99.32
80579;SHT31;69939;52.402;6.608;2023-07-20T04:40:50;13.87;98.55
80579;SHT31;69939;52.402;6.608;2023-07-20T04:43:19;13.90;98.69
80579;SHT31;69939;52.402;6.608;2023-07-20T04:45:48;13.90;97.90
80579;SHT31;69939;52.402;6.608;2023-07-20T04:48:17;13.95;98.12
80579;SHT31;69939;52.402;6.608;2023-07-20T04:50:47;14.00;97.78
80579;SHT31;69939;52.402;6.608;2023-07-20T04:53:16;14.03;97.54
80579;SHT31;69939;52.402;6.608;2023-07-20T04:55:50;14.10;97.85
80579;SHT31;69939;52.402;6.608;2023-07-20T04:58:21;14.14;97.18
80579;SHT31;69939;52.402;6.608;2023-07-20T05:00:51;14.20;96.94
80579;SHT31;69939;52.402;6.608;2023-07-20T05:03:21;14.28;96.84
80579;SHT31;69939;52.402;6.608;2023-07-20T05:05:50;14.28;96.45
80579;SHT31;69939;52.402;6.608;2023-07-20T05:08:19;14.25;96.52
80579;SHT31;69939;52.402;6.608;2023-07-20T05:10:52;14.28;96.92
80579;SHT31;69939;52.402;6.608;2023-07-20T05:13:21;14.37;96.74
80579;SHT31;69939;52.402;6.608;2023-07-20T05:15:51;14.37;96.25
80579;SHT31;69939;52.402;6.608;2023-07-20T05:18:22;14.35;96.35
80579;SHT31;69939;52.402;6.608;2023-07-20T05:20:52;14.35;96.34
80579;SHT31;69939;52.402;6.608;2023-07-20T05:23:21;14.40;96.51
80579;SHT31;69939;52.402;6.608;2023-07-20T05:25:57;14.48;96.65
80579;SHT31;69939;52.402;6.608;2023-07-20T05:28:27;14.49;96.44
80579;SHT31;69939;52.402;6.608;2023-07-20T05:30:56;14.58;96.29
80579;SHT31;69939;52.402;6.608;2023-07-20T05:33:25;14.62;96.35
80579;SHT31;69939;52.402;6.608;2023-07-20T05:35:54;14.71;95.27
80579;SHT31;69939;52.402;6.608;2023-07-20T05:38:24;14.76;95.27
80579;SHT31;69939;52.402;6.608;2023-07-20T05:40:58;14.79;94.32
80579;SHT31;69939;52.402;6.608;2023-07-20T05:43:30;14.82;93.71
80579;SHT31;69939;52.402;6.608;2023-07-20T05:45:59;14.92;93.15
80579;SHT31;69939;52.402;6.608;2023-07-20T05:48:28;14.95;93.55
80579;SHT31;69939;52.402;6.608;2023-07-20T05:50:58;14.92;93.70
80579;SHT31;69939;52.402;6.608;2023-07-20T05:53:27;14.99;94.11
80579;SHT31;69939;52.402;6.608;2023-07-20T05:56:00;15.22;92.37
80579;SHT31;69939;52.402;6.608;2023-07-20T05:58:29;16.26;90.79
80579;SHT31;69939;52.402;6.608;2023-07-20T06:00:58;17.19;85.64
80579;SHT31;69939;52.402;6.608;2023-07-20T06:03:28;17.84;81.91
80579;SHT31;69939;52.402;6.608;2023-07-20T06:05:58;18.35;80.45
80579;SHT31;69939;52.402;6.608;2023-07-20T06:08:29;19.25;77.58
80579;SHT31;69939;52.402;6.608;2023-07-20T06:11:01;19.76;74.59
80579;SHT31;69939;52.402;6.608;2023-07-20T06:13:30;20.10;75.45
80579;SHT31;69939;52.402;6.608;2023-07-20T06:16:00;20.68;75.51
80579;SHT31;69939;52.402;6.608;2023-07-20T06:18:30;21.09;72.30
80579;SHT31;69939;52.402;6.608;2023-07-20T06:20:59;21.91;71.95
80579;SHT31;69939;52.402;6.608;2023-07-20T06:23:28;22.30;67.77
80579;SHT31;69939;52.402;6.608;2023-07-20T06:25:57;22.83;68.32
80579;SHT31;69939;52.402;6.608;2023-07-20T06:28:29;23.04;66.90
80579;SHT31;69939;52.402;6.608;2023-07-20T06:31:01;23.14;64.93
80579;SHT31;69939;52.402;6.608;2023-07-20T06:33:30;23.05;64.48
80579;SHT31;69939;52.402;6.608;2023-07-20T06:36:00;23.05;65.21
80579;SHT31;69939;52.402;6.608;2023-07-20T06:38:29;22.94;64.62
80579;SHT31;69939;52.402;6.608;2023-07-20T06:40:58;23.42;66.04
80579;SHT31;69939;52.402;6.608;2023-07-20T06:43:29;23.33;64.16
80579;SHT31;69939;52.402;6.608;2023-07-20T06:45:59;23.47;63.75
80579;SHT31;69939;52.402;6.608;2023-07-20T06:48:28;23.28;63.18
80579;SHT31;69939;52.402;6.608;2023-07-20T06:50:57;23.02;62.99
80579;SHT31;69939;52.402;6.608;2023-07-20T06:53:26;22.81;63.17
80579;SHT31;69939;52.402;6.608;2023-07-20T06:55:55;22.88;63.39
80579;SHT31;69939;52.402;6.608;2023-07-20T06:58:25;23.19;64.02
80579;SHT31;69939;52.402;6.608;2023-07-20T07:00:57;23.05;62.91
80579;SHT31;69939;52.402;6.608;2023-07-20T07:03:26;22.25;64.70
80579;SHT31;69939;52.402;6.608;2023-07-20T07:05:55;22.13;64.69
80579;SHT31;69939;52.402;6.608;2023-07-20T07:08:26;22.30;63.60
80579;SHT31;69939;52.402;6.608;2023-07-20T07:10:55;22.87;62.62
80579;SHT31;69939;52.402;6.608;2023-07-20T07:13:24;22.86;62.91
80579;SHT31;69939;52.402;6.608;2023-07-20T07:15:53;23.36;61.71
80579;SHT31;69939;52.402;6.608;2023-07-20T07:18:25;22.52;63.52
80579;SHT31;69939;52.402;6.608;2023-07-20T07:20:54;22.08;61.92
80579;SHT31;69939;52.402;6.608;2023-07-20T07:23:23;22.16;62.01
80579;SHT31;69939;52.402;6.608;2023-07-20T07:25:53;22.64;61.38
80579;SHT31;69939;52.402;6.608;2023-07-20T07:28:22;22.90;62.30
80579;SHT31;69939;52.402;6.608;2023-07-20T07:30:51;22.54;61.84
80579;SHT31;69939;52.402;6.608;2023-07-20T07:33:20;22.35;61.94
80579;SHT31;69939;52.402;6.608;2023-07-20T07:35:52;22.63;60.08
80579;SHT31;69939;52.402;6.608;2023-07-20T07:38:21;22.90;61.65
80579;SHT31;69939;52.402;6.608;2023-07-20T07:40:51;23.39;59.12
80579;SHT31;69939;52.402;6.608;2023-07-20T07:43:20;24.03;58.18
80579;SHT31;69939;52.402;6.608;2023-07-20T07:45:49;24.08;58.32
80579;SHT31;69939;52.402;6.608;2023-07-20T07:48:22;24.08;58.68
80579;SHT31;69939;52.402;6.608;2023-07-20T07:50:54;23.59;59.46
80579;SHT31;69939;52.402;6.608;2023-07-20T07:53:23;23.47;58.00
80579;SHT31;69939;52.402;6.608;2023-07-20T07:55:53;23.42;57.80
80579;SHT31;69939;52.402;6.608;2023-07-20T07:58:23;23.94;57.12
80579;SHT31;69939;52.402;6.608;2023-07-20T08:00:52;23.84;56.08
80579;SHT31;69939;52.402;6.608;2023-07-20T08:03:21;23.42;58.34
80579;SHT31;69939;52.402;6.608;2023-07-20T08:05:54;22.84;58.65
80579;SHT31;69939;52.402;6.608;2023-07-20T08:08:25;21.98;60.58
80579;SHT31;69939;52.402;6.608;2023-07-20T08:10:54;22.42;59.08
80579;SHT31;69939;52.402;6.608;2023-07-20T08:13:23;22.36;60.82
80579;SHT31;69939;52.402;6.608;2023-07-20T08:15:52;22.97;56.86
80579;SHT31;69939;52.402;6.608;2023-07-20T08:18:22;23.15;56.97
80579;SHT31;69939;52.402;6.608;2023-07-20T08:20:53;23.28;57.04
80579;SHT31;69939;52.402;6.608;2023-07-20T08:23:23;22.87;56.25
80579;SHT31;69939;52.402;6.608;2023-07-20T08:25:53;23.14;56.82
80579;SHT31;69939;52.402;6.608;2023-07-20T08:28:22;23.05;57.66
80579;SHT31;69939;52.402;6.608;2023-07-20T08:30:51;23.65;59.06
80579;SHT31;69939;52.402;6.608;2023-07-20T08:33:21;24.20;57.44
80579;SHT31;69939;52.402;6.608;2023-07-20T08:35:50;24.43;55.68
80579;SHT31;69939;52.402;6.608;2023-07-20T08:38:23;24.89;54.71
80579;SHT31;69939;52.402;6.608;2023-07-20T08:40:52;24.76;55.01
80579;SHT31;69939;52.402;6.608;2023-07-20T08:43:22;24.63;55.38
80579;SHT31;69939;52.402;6.608;2023-07-20T08:45:54;23.81;54.50
80579;SHT31;69939;52.402;6.608;2023-07-20T08:48:25;22.77;57.86
80579;SHT31;69939;52.402;6.608;2023-07-20T08:50:57;22.26;57.29
80579;SHT31;69939;52.402;6.608;2023-07-20T08:53:31;21.75;60.01
80579;SHT31;69939;52.402;6.608;2023-07-20T08:56:02;21.81;59.68
80579;SHT31;69939;52.402;6.608;2023-07-20T08:58:34;22.22;56.25
80579;SHT31;69939;52.402;6.608;2023-07-20T09:01:05;22.53;56.21
80579;SHT31;69939;52.402;6.608;2023-07-20T09:03:37;23.70;55.18
80579;SHT31;69939;52.402;6.608;2023-07-20T09:06:12;24.00;53.98
80579;SHT31;69939;52.402;6.608;2023-07-20T09:08:44;24.04;58.50
80579;SHT31;69939;52.402;6.608;2023-07-20T09:11:14;24.82;54.45
80579;SHT31;69939;52.402;6.608;2023-07-20T09:13:43;25.61;54.15
80579;SHT31;69939;52.402;6.608;2023-07-20T09:16:13;25.02;52.29
80579;SHT31;69939;52.402;6.608;2023-07-20T09:18:42;23.01;56.18
80579;SHT31;69939;52.402;6.608;2023-07-20T09:21:12;22.08;59.87
80579;SHT31;69939;52.402;6.608;2023-07-20T09:23:49;23.23;56.66
80579;SHT31;69939;52.402;6.608;2023-07-20T09:26:25;22.86;57.40
80579;SHT31;69939;52.402;6.608;2023-07-20T09:28:54;22.35;59.57
80579;SHT31;69939;52.402;6.608;2023-07-20T09:31:23;23.07;57.39
80579;SHT31;69939;52.402;6.608;2023-07-20T09:33:54;23.88;55.49
80579;SHT31;69939;52.402;6.608;2023-07-20T09:36:26;25.14;55.20
80579;SHT31;69939;52.402;6.608;2023-07-20T09:38:59;25.74;53.85
80579;SHT31;69939;52.402;6.608;2023-07-20T09:41:29;25.26;56.23
80579;SHT31;69939;52.402;6.608;2023-07-20T09:44:00;25.49;53.32
80579;SHT31;69939;52.402;6.608;2023-07-20T09:46:41;25.16;53.36
80579;SHT31;69939;52.402;6.608;2023-07-20T09:49:10;24.80;53.71
80579;SHT31;69939;52.402;6.608;2023-07-20T09:51:42;24.42;54.92
80579;SHT31;69939;52.402;6.608;2023-07-20T09:54:17;23.52;56.39
80579;SHT31;69939;52.402;6.608;2023-07-20T09:56:48;23.11;55.51
80579;SHT31;69939;52.402;6.608;2023-07-20T09:59:19;22.77;57.53
80579;SHT31;69939;52.402;6.608;2023-07-20T10:01:49;22.54;55.88
80579;SHT31;69939;52.402;6.608;2023-07-20T10:04:23;22.94;59.98
80579;SHT31;69939;52.402;6.608;2023-07-20T10:06:54;24.20;61.72
80579;SHT31;69939;52.402;6.608;2023-07-20T10:09:28;25.33;54.62
80579;SHT31;69939;52.402;6.608;2023-07-20T10:11:59;25.37;50.88
80579;SHT31;69939;52.402;6.608;2023-07-20T10:14:30;23.83;53.25
80579;SHT31;69939;52.402;6.608;2023-07-20T10:17:02;22.95;56.79
80579;SHT31;69939;52.402;6.608;2023-07-20T10:19:41;24.13;55.74
80579;SHT31;69939;52.402;6.608;2023-07-20T10:22:14;24.93;52.27
80579;SHT31;69939;52.402;6.608;2023-07-20T10:24:49;24.58;51.27
80579;SHT31;69939;52.402;6.608;2023-07-20T10:27:20;23.01;56.82
80579;SHT31;69939;52.402;6.608;2023-07-20T10:29:51;22.15;60.05
80579;SHT31;69939;52.402;6.608;2023-07-20T10:32:22;21.02;63.07
80579;SHT31;69939;52.402;6.608;2023-07-20T10:34:51;20.24;66.84
80579;SHT31;69939;52.402;6.608;2023-07-20T10:37:48;19.72;69.96
80579;SHT31;69939;52.402;6.608;2023-07-20T10:40:32;18.81;70.80
80579;SHT31;69939;52.402;6.608;2023-07-20T10:43:04;18.15;74.44
80579;SHT31;69939;52.402;6.608;2023-07-20T10:45:36;17.78;75.67
80579;SHT31;69939;52.402;6.608;2023-07-20T10:48:15;17.36;78.21
80579;SHT31;69939;52.402;6.608;2023-07-20T10:51:08;17.01;80.04
80579;SHT31;69939;52.402;6.608;2023-07-20T10:53:38;16.73;80.66
80579;SHT31;69939;52.402;6.608;2023-07-20T10:56:12;16.61;82.79
80579;SHT31;69939;52.402;6.608;2023-07-20T10:58:42;16.60;81.84
80579;SHT31;69939;52.402;6.608;2023-07-20T11:01:13;16.68;81.22
80579;SHT31;69939;52.402;6.608;2023-07-20T11:03:49;16.91;82.66
80579;SHT31;69939;52.402;6.608;2023-07-20T11:06:30;17.30;80.11
80579;SHT31;69939;52.402;6.608;2023-07-20T11:09:07;17.49;82.09
80579;SHT31;69939;52.402;6.608;2023-07-20T11:11:43;17.74;78.88
80579;SHT31;69939;52.402;6.608;2023-07-20T11:14:21;18.14;81.17
80579;SHT31;69939;52.402;6.608;2023-07-20T11:16:52;18.66;80.59
80579;SHT31;69939;52.402;6.608;2023-07-20T11:19:23;19.24;77.63
80579;SHT31;69939;52.402;6.608;2023-07-20T11:21:55;19.32;73.83
80579;SHT31;69939;52.402;6.608;2023-07-20T11:24:25;19.63;76.53
80579;SHT31;69939;52.402;6.608;2023-07-20T11:26:57;20.68;72.48
80579;SHT31;69939;52.402;6.608;2023-07-20T11:29:26;21.58;73.59
80579;SHT31;69939;52.402;6.608;2023-07-20T11:31:56;22.44;69.93
80579;SHT31;69939;52.402;6.608;2023-07-20T11:34:26;23.04;67.89
80579;SHT31;69939;52.402;6.608;2023-07-20T11:36:56;23.14;64.67
80579;SHT31;69939;52.402;6.608;2023-07-20T11:39:25;23.50;62.12
80579;SHT31;69939;52.402;6.608;2023-07-20T11:41:58;24.17;64.06
80579;SHT31;69939;52.402;6.608;2023-07-20T11:44:27;24.03;58.03
80579;SHT31;69939;52.402;6.608;2023-07-20T11:47:00;24.61;58.29
80579;SHT31;69939;52.402;6.608;2023-07-20T11:49:34;24.66;59.31
80579;SHT31;69939;52.402;6.608;2023-07-20T11:52:06;25.00;60.57
80579;SHT31;69939;52.402;6.608;2023-07-20T11:54:38;25.52;54.17
80579;SHT31;69939;52.402;6.608;2023-07-20T11:57:18;26.04;54.36
80579;SHT31;69939;52.402;6.608;2023-07-20T11:59:54;25.52;56.32
80579;SHT31;69939;52.402;6.608;2023-07-20T12:02:27;25.45;52.65
80579;SHT31;69939;52.402;6.608;2023-07-20T12:04:57;25.76;52.47
80579;SHT31;69939;52.402;6.608;2023-07-20T12:07:27;26.00;61.28
80579;SHT31;69939;52.402;6.608;2023-07-20T12:10:04;26.13;51.26
80579;SHT31;69939;52.402;6.608;2023-07-20T12:12:37;26.51;51.70
80579;SHT31;69939;52.402;6.608;2023-07-20T12:15:16;26.33;51.11
80579;SHT31;69939;52.402;6.608;2023-07-20T12:17:53;26.88;54.59
80579;SHT31;69939;52.402;6.608;2023-07-20T12:20:26;27.36;51.73
80579;SHT31;69939;52.402;6.608;2023-07-20T12:22:59;27.16;49.19
80579;SHT31;69939;52.402;6.608;2023-07-20T12:25:47;27.06;51.18
80579;SHT31;69939;52.402;6.608;2023-07-20T12:28:20;27.73;47.93
80579;SHT31;69939;52.402;6.608;2023-07-20T12:30:49;28.74;46.26
80579;SHT31;69939;52.402;6.608;2023-07-20T12:33:22;28.42;46.85
80579;SHT31;69939;52.402;6.608;2023-07-20T12:35:51;28.15;48.53
80579;SHT31;69939;52.402;6.608;2023-07-20T12:38:21;26.24;49.02
80579;SHT31;69939;52.402;6.608;2023-07-20T12:40:51;26.60;51.41
80579;SHT31;69939;52.402;6.608;2023-07-20T12:43:22;27.19;49.50
80579;SHT31;69939;52.402;6.608;2023-07-20T12:45:52;27.94;48.07
80579;SHT31;69939;52.402;6.608;2023-07-20T12:48:22;28.19;47.36
80579;SHT31;69939;52.402;6.608;2023-07-20T12:50:51;27.16;47.97
80579;SHT31;69939;52.402;6.608;2023-07-20T12:53:21;26.65;51.70
80579;SHT31;69939;52.402;6.608;2023-07-20T12:55:50;25.48;48.17
80579;SHT31;69939;52.402;6.608;2023-07-20T12:58:22;26.04;54.26
80579;SHT31;69939;52.402;6.608;2023-07-20T13:00:51;27.08;51.76
80579;SHT31;69939;52.402;6.608;2023-07-20T13:03:21;27.61;50.42
80579;SHT31;69939;52.402;6.608;2023-07-20T13:05:50;27.65;50.15
80579;SHT31;69939;52.402;6.608;2023-07-20T13:08:19;26.81;49.40
80579;SHT31;69939;52.402;6.608;2023-07-20T13:10:50;25.44;51.79
80579;SHT31;69939;52.402;6.608;2023-07-20T13:13:22;24.83;56.85
80579;SHT31;69939;52.402;6.608;2023-07-20T13:15:51;23.73;55.25
80579;SHT31;69939;52.402;6.608;2023-07-20T13:18:21;24.48;57.18
80579;SHT31;69939;52.402;6.608;2023-07-20T13:20:50;25.88;52.51
80579;SHT31;69939;52.402;6.608;2023-07-20T13:23:19;24.65;52.34
80579;SHT31;69939;52.402;6.608;2023-07-20T13:25:48;24.17;57.26
80579;SHT31;69939;52.402;6.608;2023-07-20T13:28:17;23.98;57.70
80579;SHT31;69939;52.402;6.608;2023-07-20T13:30:49;23.73;57.72
80579;SHT31;69939;52.402;6.608;2023-07-20T13:33:18;22.84;58.28
80579;SHT31;69939;52.402;6.608;2023-07-20T13:35:47;22.20;58.96
80579;SHT31;69939;52.402;6.608;2023-07-20T13:38:16;22.46;58.14
80579;SHT31;69939;52.402;6.608;2023-07-20T13:40:45;22.30;59.80
80579;SHT31;69939;52.402;6.608;2023-07-20T13:43:14;23.35;60.12
80579;SHT31;69939;52.402;6.608;2023-07-20T13:45:44;25.11;53.77
80579;SHT31;69939;52.402;6.608;2023-07-20T13:48:15;25.68;51.57
80579;SHT31;69939;52.402;6.608;2023-07-20T13:50:48;25.57;51.21
80579;SHT31;69939;52.402;6.608;2023-07-20T13:53:19;25.28;53.58
80579;SHT31;69939;52.402;6.608;2023-07-20T13:55:48;24.01;53.57
80579;SHT31;69939;52.402;6.608;2023-07-20T13:58:18;24.04;55.39
80579;SHT31;69939;52.402;6.608;2023-07-20T14:00:50;23.73;53.71
80579;SHT31;69939;52.402;6.608;2023-07-20T14:03:23;24.13;54.62
80579;SHT31;69939;52.402;6.608;2023-07-20T14:05:52;24.61;56.42
80579;SHT31;69939;52.402;6.608;2023-07-20T14:08:22;25.02;53.87
80579;SHT31;69939;52.402;6.608;2023-07-20T14:10:59;25.62;51.84
80579;SHT31;69939;52.402;6.608;2023-07-20T14:13:28;25.27;50.31
80579;SHT31;69939;52.402;6.608;2023-07-20T14:15:58;24.89;51.71
80579;SHT31;69939;52.402;6.608;2023-07-20T14:18:30;24.77;54.34
80579;SHT31;69939;52.402;6.608;2023-07-20T14:20:59;24.41;54.93
80579;SHT31;69939;52.402;6.608;2023-07-20T14:23:30;24.13;53.14
80579;SHT31;69939;52.402;6.608;2023-07-20T14:25:59;24.08;55.96
80579;SHT31;69939;52.402;6.608;2023-07-20T14:28:30;25.02;57.31
80579;SHT31;69939;52.402;6.608;2023-07-20T14:31:00;26.16;49.78
80579;SHT31;69939;52.402;6.608;2023-07-20T14:33:31;26.61;48.91
80579;SHT31;69939;52.402;6.608;2023-07-20T14:36:01;26.81;48.26
80579;SHT31;69939;52.402;6.608;2023-07-20T14:38:31;27.91;45.25
80579;SHT31;69939;52.402;6.608;2023-07-20T14:41:02;26.77;46.51
80579;SHT31;69939;52.402;6.608;2023-07-20T14:43:32;25.96;50.90
80579;SHT31;69939;52.402;6.608;2023-07-20T14:46:01;26.10;49.45
80579;SHT31;69939;52.402;6.608;2023-07-20T14:48:33;25.64;48.68
80579;SHT31;69939;52.402;6.608;2023-07-20T14:51:02;26.14;49.58
80579;SHT31;69939;52.402;6.608;2023-07-20T14:53:31;26.96;46.96
80579;SHT31;69939;52.402;6.608;2023-07-20T14:56:01;26.41;47.76
80579;SHT31;69939;52.402;6.608;2023-07-20T14:58:31;25.42;48.37
80579;SHT31;69939;52.402;6.608;2023-07-20T15:01:00;24.82;50.42
80579;SHT31;69939;52.402;6.608;2023-07-20T15:03:29;24.35;52.86
80579;SHT31;69939;52.402;6.608;2023-07-20T15:06:01;23.96;53.70
80579;SHT31;69939;52.402;6.608;2023-07-20T15:08:31;24.10;53.14
80579;SHT31;69939;52.402;6.608;2023-07-20T15:11:00;24.04;52.48
80579;SHT31;69939;52.402;6.608;2023-07-20T15:13:29;23.74;52.93
80579;SHT31;69939;52.402;6.608;2023-07-20T15:15:58;23.90;52.71
80579;SHT31;69939;52.402;6.608;2023-07-20T15:18:28;23.74;51.77
80579;SHT31;69939;52.402;6.608;2023-07-20T15:20:59;23.43;54.55
80579;SHT31;69939;52.402;6.608;2023-07-20T15:23:28;23.18;54.43
80579;SHT31;69939;52.402;6.608;2023-07-20T15:25:58;23.41;55.09
80579;SHT31;69939;52.402;6.608;2023-07-20T15:28:27;24.49;50.86
80579;SHT31;69939;52.402;6.608;2023-07-20T15:30:59;24.26;52.28
80579;SHT31;69939;52.402;6.608;2023-07-20T15:33:29;23.80;56.15
80579;SHT31;69939;52.402;6.608;2023-07-20T15:36:01;23.63;52.99
80579;SHT31;69939;52.402;6.608;2023-07-20T15:38:30;24.47;51.56
80579;SHT31;69939;52.402;6.608;2023-07-20T15:41:00;25.99;49.19
80579;SHT31;69939;52.402;6.608;2023-07-20T15:43:30;25.69;49.51
80579;SHT31;69939;52.402;6.608;2023-07-20T15:49:13;24.17;53.60
80579;SHT31;69939;52.402;6.608;2023-07-20T15:51:45;23.87;56.17
80579;SHT31;69939;52.402;6.608;2023-07-20T15:54:15;23.62;53.16
80579;SHT31;69939;52.402;6.608;2023-07-20T15:56:44;23.63;53.80
80579;SHT31;69939;52.402;6.608;2023-07-20T15:59:14;23.32;55.65